Birchington, United Kingdom
Current Conditions -  °F | °C
As of 6:20 AM on Tuesday 21 Oct 2014 (Local Time) from EGMC Reporting Station
Light Rain Light Rain  
Wind Chill: 55°   Ceiling: Unl
Heat Index: 55°   Visibility: 6mi
Dew Point: 52°   Wind: 18mph
Humidity: 88%   Direction: 220°SW
Pressure: 29.59"   Gusts: NA
Location:  51.37°N, 1.31°E
Report Text: EGMC 210520Z 22016KT 9999 -RA FEW006 SCT015 13/11 Q1002
Loading
Personal Weather Stations






























Interactive Weather Map
Tropical Storm Tracking
New forecast layout! Learn more

10-Day Weather Forecast

Advertisements
Track Severe Weather on mobile